sensor_id;sensor_type;location;lat;lon;timestamp;P1;durP1;ratioP1;P2;durP2;ratioP2
44143;SDS011;68165;51.920;4.492;2023-03-01T00:01:25;14.32;;;8.25;;
44143;SDS011;68165;51.920;4.492;2023-03-01T00:03:52;14.85;;;8.48;;
44143;SDS011;68165;51.920;4.492;2023-03-01T00:06:20;14.50;;;7.78;;
44143;SDS011;68165;51.920;4.492;2023-03-01T00:08:45;14.75;;;8.48;;
44143;SDS011;68165;51.920;4.492;2023-03-01T00:11:22;14.30;;;7.90;;
44143;SDS011;68165;51.920;4.492;2023-03-01T00:13:50;13.13;;;7.47;;
44143;SDS011;68165;51.920;4.492;2023-03-01T00:16:21;14.98;;;8.27;;
44143;SDS011;68165;51.920;4.492;2023-03-01T00:18:50;17.07;;;8.87;;
44143;SDS011;68165;51.920;4.492;2023-03-01T00:21:16;16.05;;;8.10;;
44143;SDS011;68165;51.920;4.492;2023-03-01T00:23:41;17.67;;;8.50;;
44143;SDS011;68165;51.920;4.492;2023-03-01T00:26:08;16.20;;;8.73;;
44143;SDS011;68165;51.920;4.492;2023-03-01T00:28:35;17.80;;;8.90;;
44143;SDS011;68165;51.920;4.492;2023-03-01T00:31:07;15.15;;;8.35;;
44143;SDS011;68165;51.920;4.492;2023-03-01T00:33:35;15.00;;;8.93;;
44143;SDS011;68165;51.920;4.492;2023-03-01T00:36:00;17.52;;;8.07;;
44143;SDS011;68165;51.920;4.492;2023-03-01T00:38:26;16.30;;;9.05;;
44143;SDS011;68165;51.920;4.492;2023-03-01T00:40:52;16.60;;;9.33;;
44143;SDS011;68165;51.920;4.492;2023-03-01T00:43:18;14.88;;;8.13;;
44143;SDS011;68165;51.920;4.492;2023-03-01T00:45:43;21.00;;;9.35;;
44143;SDS011;68165;51.920;4.492;2023-03-01T00:48:09;19.17;;;8.60;;
44143;SDS011;68165;51.920;4.492;2023-03-01T00:50:34;15.43;;;8.88;;
44143;SDS011;68165;51.920;4.492;2023-03-01T00:52:59;14.30;;;8.13;;
44143;SDS011;68165;51.920;4.492;2023-03-01T00:55:25;18.25;;;9.45;;
44143;SDS011;68165;51.920;4.492;2023-03-01T00:57:52;19.13;;;9.48;;
44143;SDS011;68165;51.920;4.492;2023-03-01T01:00:18;16.63;;;8.82;;
44143;SDS011;68165;51.920;4.492;2023-03-01T01:02:44;18.58;;;9.23;;
44143;SDS011;68165;51.920;4.492;2023-03-01T01:05:10;17.53;;;9.83;;
44143;SDS011;68165;51.920;4.492;2023-03-01T01:07:36;21.83;;;10.05;;
44143;SDS011;68165;51.920;4.492;2023-03-01T01:10:01;19.00;;;9.40;;
44143;SDS011;68165;51.920;4.492;2023-03-01T01:12:27;17.27;;;9.97;;
44143;SDS011;68165;51.920;4.492;2023-03-01T01:14:53;18.45;;;9.38;;
44143;SDS011;68165;51.920;4.492;2023-03-01T01:17:18;19.48;;;10.07;;
44143;SDS011;68165;51.920;4.492;2023-03-01T01:19:44;20.17;;;10.85;;
44143;SDS011;68165;51.920;4.492;2023-03-01T01:22:09;17.90;;;10.35;;
44143;SDS011;68165;51.920;4.492;2023-03-01T01:24:34;25.60;;;9.65;;
44143;SDS011;68165;51.920;4.492;2023-03-01T01:27:00;24.98;;;10.27;;
44143;SDS011;68165;51.920;4.492;2023-03-01T01:29:25;21.60;;;10.88;;
44143;SDS011;68165;51.920;4.492;2023-03-01T01:31:51;17.17;;;10.05;;
44143;SDS011;68165;51.920;4.492;2023-03-01T01:34:18;20.48;;;10.80;;
44143;SDS011;68165;51.920;4.492;2023-03-01T01:36:49;20.08;;;10.32;;
44143;SDS011;68165;51.920;4.492;2023-03-01T01:39:16;19.15;;;10.52;;
44143;SDS011;68165;51.920;4.492;2023-03-01T01:41:41;20.73;;;10.70;;
44143;SDS011;68165;51.920;4.492;2023-03-01T01:44:27;18.30;;;10.20;;
44143;SDS011;68165;51.920;4.492;2023-03-01T01:46:57;18.67;;;9.93;;
44143;SDS011;68165;51.920;4.492;2023-03-01T01:52:09;20.97;;;10.00;;
44143;SDS011;68165;51.920;4.492;2023-03-01T01:54:44;24.45;;;11.23;;
44143;SDS011;68165;51.920;4.492;2023-03-01T01:57:22;21.73;;;11.10;;
44143;SDS011;68165;51.920;4.492;2023-03-01T01:59:53;16.73;;;9.27;;
44143;SDS011;68165;51.920;4.492;2023-03-01T02:02:22;19.52;;;10.27;;
44143;SDS011;68165;51.920;4.492;2023-03-01T02:04:48;22.63;;;10.73;;
44143;SDS011;68165;51.920;4.492;2023-03-01T02:07:22;20.33;;;11.15;;
44143;SDS011;68165;51.920;4.492;2023-03-01T02:09:50;18.17;;;9.93;;
44143;SDS011;68165;51.920;4.492;2023-03-01T02:12:19;20.00;;;10.43;;
44143;SDS011;68165;51.920;4.492;2023-03-01T02:14:48;22.35;;;11.18;;
44143;SDS011;68165;51.920;4.492;2023-03-01T02:17:15;19.08;;;10.48;;
44143;SDS011;68165;51.920;4.492;2023-03-01T02:22:27;22.77;;;11.17;;
44143;SDS011;68165;51.920;4.492;2023-03-01T02:30:35;23.37;;;10.93;;
44143;SDS011;68165;51.920;4.492;2023-03-01T02:33:02;20.10;;;11.00;;
44143;SDS011;68165;51.920;4.492;2023-03-01T02:35:29;20.83;;;10.15;;
44143;SDS011;68165;51.920;4.492;2023-03-01T02:37:59;25.33;;;11.47;;
44143;SDS011;68165;51.920;4.492;2023-03-01T02:40:27;24.55;;;11.65;;
44143;SDS011;68165;51.920;4.492;2023-03-01T02:42:56;23.47;;;11.23;;
44143;SDS011;68165;51.920;4.492;2023-03-01T02:45:22;25.40;;;12.43;;
44143;SDS011;68165;51.920;4.492;2023-03-01T02:47:48;24.98;;;12.63;;
44143;SDS011;68165;51.920;4.492;2023-03-01T02:55:41;24.13;;;12.13;;
44143;SDS011;68165;51.920;4.492;2023-03-01T02:58:06;24.60;;;12.70;;
44143;SDS011;68165;51.920;4.492;2023-03-01T03:00:36;24.50;;;11.63;;
44143;SDS011;68165;51.920;4.492;2023-03-01T03:03:09;22.03;;;11.30;;
44143;SDS011;68165;51.920;4.492;2023-03-01T03:05:35;24.17;;;11.55;;
44143;SDS011;68165;51.920;4.492;2023-03-01T03:08:02;24.90;;;11.37;;
44143;SDS011;68165;51.920;4.492;2023-03-01T03:10:32;27.25;;;11.30;;
44143;SDS011;68165;51.920;4.492;2023-03-01T03:13:04;22.85;;;11.55;;
44143;SDS011;68165;51.920;4.492;2023-03-01T03:15:32;25.42;;;12.30;;
44143;SDS011;68165;51.920;4.492;2023-03-01T03:18:01;22.33;;;12.07;;
44143;SDS011;68165;51.920;4.492;2023-03-01T03:20:27;23.08;;;10.63;;
44143;SDS011;68165;51.920;4.492;2023-03-01T03:22:54;21.97;;;11.73;;
44143;SDS011;68165;51.920;4.492;2023-03-01T03:25:21;22.37;;;10.47;;
44143;SDS011;68165;51.920;4.492;2023-03-01T03:27:48;24.17;;;11.67;;
44143;SDS011;68165;51.920;4.492;2023-03-01T03:30:16;25.53;;;11.13;;
44143;SDS011;68165;51.920;4.492;2023-03-01T03:32:44;23.73;;;11.43;;
44143;SDS011;68165;51.920;4.492;2023-03-01T03:35:22;22.65;;;10.80;;
44143;SDS011;68165;51.920;4.492;2023-03-01T03:40:37;17.90;;;9.57;;
44143;SDS011;68165;51.920;4.492;2023-03-01T03:43:07;21.63;;;11.00;;
44143;SDS011;68165;51.920;4.492;2023-03-01T03:45:34;23.35;;;11.27;;
44143;SDS011;68165;51.920;4.492;2023-03-01T03:48:02;20.67;;;10.83;;
44143;SDS011;68165;51.920;4.492;2023-03-01T03:50:30;25.63;;;11.83;;
44143;SDS011;68165;51.920;4.492;2023-03-01T03:52:55;20.87;;;10.97;;
44143;SDS011;68165;51.920;4.492;2023-03-01T03:55:21;21.42;;;9.75;;
44143;SDS011;68165;51.920;4.492;2023-03-01T03:57:47;27.17;;;11.60;;
44143;SDS011;68165;51.920;4.492;2023-03-01T04:00:16;21.20;;;10.57;;
44143;SDS011;68165;51.920;4.492;2023-03-01T04:02:45;20.70;;;11.57;;
44143;SDS011;68165;51.920;4.492;2023-03-01T04:05:12;22.48;;;10.88;;
44143;SDS011;68165;51.920;4.492;2023-03-01T04:07:40;23.60;;;11.30;;
44143;SDS011;68165;51.920;4.492;2023-03-01T04:10:08;23.10;;;11.73;;
44143;SDS011;68165;51.920;4.492;2023-03-01T04:12:41;20.43;;;10.37;;
44143;SDS011;68165;51.920;4.492;2023-03-01T04:15:08;21.30;;;10.93;;
44143;SDS011;68165;51.920;4.492;2023-03-01T04:17:39;26.00;;;12.18;;
44143;SDS011;68165;51.920;4.492;2023-03-01T04:20:06;21.30;;;11.23;;
44143;SDS011;68165;51.920;4.492;2023-03-01T04:22:36;27.23;;;13.17;;
44143;SDS011;68165;51.920;4.492;2023-03-01T04:25:03;25.67;;;11.83;;
44143;SDS011;68165;51.920;4.492;2023-03-01T04:27:31;23.47;;;11.90;;
44143;SDS011;68165;51.920;4.492;2023-03-01T04:30:00;26.03;;;12.03;;
44143;SDS011;68165;51.920;4.492;2023-03-01T04:32:27;28.20;;;12.80;;
44143;SDS011;68165;51.920;4.492;2023-03-01T04:34:52;22.53;;;12.10;;
44143;SDS011;68165;51.920;4.492;2023-03-01T04:37:17;27.50;;;12.90;;
44143;SDS011;68165;51.920;4.492;2023-03-01T04:39:43;27.30;;;12.70;;
44143;SDS011;68165;51.920;4.492;2023-03-01T04:42:12;26.37;;;12.83;;
44143;SDS011;68165;51.920;4.492;2023-03-01T04:44:37;24.53;;;13.33;;
44143;SDS011;68165;51.920;4.492;2023-03-01T04:47:03;21.53;;;12.03;;
44143;SDS011;68165;51.920;4.492;2023-03-01T04:49:28;23.77;;;12.77;;
44143;SDS011;68165;51.920;4.492;2023-03-01T04:51:53;26.30;;;14.20;;
44143;SDS011;68165;51.920;4.492;2023-03-01T04:54:19;29.37;;;14.10;;
44143;SDS011;68165;51.920;4.492;2023-03-01T04:56:44;26.83;;;13.67;;
44143;SDS011;68165;51.920;4.492;2023-03-01T04:59:10;27.50;;;14.30;;
44143;SDS011;68165;51.920;4.492;2023-03-01T05:01:37;23.67;;;13.07;;
44143;SDS011;68165;51.920;4.492;2023-03-01T05:04:04;29.00;;;13.50;;
44143;SDS011;68165;51.920;4.492;2023-03-01T05:06:30;25.73;;;14.03;;
44143;SDS011;68165;51.920;4.492;2023-03-01T05:08:56;28.43;;;14.13;;
44143;SDS011;68165;51.920;4.492;2023-03-01T05:11:23;27.67;;;13.40;;
44143;SDS011;68165;51.920;4.492;2023-03-01T05:13:49;22.80;;;12.63;;
44143;SDS011;68165;51.920;4.492;2023-03-01T05:16:21;31.73;;;13.57;;
44143;SDS011;68165;51.920;4.492;2023-03-01T05:18:46;31.92;;;15.02;;
44143;SDS011;68165;51.920;4.492;2023-03-01T05:21:12;26.87;;;13.90;;
44143;SDS011;68165;51.920;4.492;2023-03-01T05:23:42;21.30;;;12.07;;
44143;SDS011;68165;51.920;4.492;2023-03-01T05:26:08;27.50;;;12.93;;
44143;SDS011;68165;51.920;4.492;2023-03-01T05:28:35;25.10;;;12.67;;
44143;SDS011;68165;51.920;4.492;2023-03-01T05:31:00;23.10;;;12.90;;
44143;SDS011;68165;51.920;4.492;2023-03-01T05:33:26;24.90;;;13.03;;
44143;SDS011;68165;51.920;4.492;2023-03-01T05:35:52;24.70;;;12.83;;
44143;SDS011;68165;51.920;4.492;2023-03-01T05:38:18;32.60;;;14.30;;
44143;SDS011;68165;51.920;4.492;2023-03-01T05:40:45;30.07;;;14.20;;
44143;SDS011;68165;51.920;4.492;2023-03-01T05:43:12;22.50;;;12.77;;
44143;SDS011;68165;51.920;4.492;2023-03-01T05:45:39;24.75;;;12.88;;
44143;SDS011;68165;51.920;4.492;2023-03-01T05:48:05;23.97;;;12.47;;
44143;SDS011;68165;51.920;4.492;2023-03-01T05:50:33;24.53;;;11.90;;
44143;SDS011;68165;51.920;4.492;2023-03-01T05:53:09;26.00;;;12.48;;
44143;SDS011;68165;51.920;4.492;2023-03-01T05:55:36;25.15;;;12.88;;
44143;SDS011;68165;51.920;4.492;2023-03-01T05:58:03;23.50;;;10.87;;
44143;SDS011;68165;51.920;4.492;2023-03-01T06:00:31;20.20;;;10.80;;
44143;SDS011;68165;51.920;4.492;2023-03-01T06:03:00;19.70;;;10.30;;
44143;SDS011;68165;51.920;4.492;2023-03-01T06:05:26;23.17;;;11.03;;
44143;SDS011;68165;51.920;4.492;2023-03-01T06:07:53;18.63;;;10.63;;
44143;SDS011;68165;51.920;4.492;2023-03-01T06:10:19;19.30;;;10.23;;
44143;SDS011;68165;51.920;4.492;2023-03-01T06:12:47;19.20;;;10.23;;
44143;SDS011;68165;51.920;4.492;2023-03-01T06:15:13;19.37;;;10.13;;
44143;SDS011;68165;51.920;4.492;2023-03-01T06:17:40;19.53;;;9.93;;
44143;SDS011;68165;51.920;4.492;2023-03-01T06:20:11;20.47;;;10.97;;
44143;SDS011;68165;51.920;4.492;2023-03-01T06:22:39;23.13;;;11.33;;
44143;SDS011;68165;51.920;4.492;2023-03-01T06:25:05;20.43;;;10.70;;
44143;SDS011;68165;51.920;4.492;2023-03-01T06:27:32;19.97;;;10.70;;
44143;SDS011;68165;51.920;4.492;2023-03-01T06:29:57;20.50;;;10.40;;
44143;SDS011;68165;51.920;4.492;2023-03-01T06:32:22;28.33;;;11.70;;
44143;SDS011;68165;51.920;4.492;2023-03-01T06:34:48;21.57;;;11.23;;
44143;SDS011;68165;51.920;4.492;2023-03-01T06:37:14;21.47;;;10.57;;
44143;SDS011;68165;51.920;4.492;2023-03-01T06:39:40;18.80;;;9.63;;
44143;SDS011;68165;51.920;4.492;2023-03-01T06:42:06;17.40;;;9.97;;
44143;SDS011;68165;51.920;4.492;2023-03-01T06:44:32;19.53;;;10.80;;
44143;SDS011;68165;51.920;4.492;2023-03-01T06:46:58;22.20;;;9.83;;
44143;SDS011;68165;51.920;4.492;2023-03-01T06:49:24;18.80;;;10.37;;
44143;SDS011;68165;51.920;4.492;2023-03-01T06:51:49;19.90;;;10.70;;
44143;SDS011;68165;51.920;4.492;2023-03-01T06:54:16;19.17;;;9.80;;
44143;SDS011;68165;51.920;4.492;2023-03-01T06:56:42;20.63;;;9.63;;
44143;SDS011;68165;51.920;4.492;2023-03-01T06:59:11;19.47;;;9.73;;
44143;SDS011;68165;51.920;4.492;2023-03-01T07:01:36;16.57;;;9.33;;
44143;SDS011;68165;51.920;4.492;2023-03-01T07:04:02;19.87;;;10.40;;
44143;SDS011;68165;51.920;4.492;2023-03-01T07:06:27;20.65;;;9.65;;
44143;SDS011;68165;51.920;4.492;2023-03-01T07:08:54;19.63;;;10.03;;
44143;SDS011;68165;51.920;4.492;2023-03-01T07:11:20;19.70;;;11.23;;
44143;SDS011;68165;51.920;4.492;2023-03-01T07:13:46;18.73;;;9.60;;
44143;SDS011;68165;51.920;4.492;2023-03-01T07:16:11;19.17;;;8.93;;
44143;SDS011;68165;51.920;4.492;2023-03-01T07:18:36;16.15;;;9.65;;
44143;SDS011;68165;51.920;4.492;2023-03-01T07:21:06;18.13;;;7.65;;
44143;SDS011;68165;51.920;4.492;2023-03-01T07:23:33;13.30;;;7.53;;
44143;SDS011;68165;51.920;4.492;2023-03-01T07:25:58;16.92;;;8.98;;
44143;SDS011;68165;51.920;4.492;2023-03-01T07:28:25;15.45;;;8.70;;
44143;SDS011;68165;51.920;4.492;2023-03-01T07:30:51;15.73;;;7.95;;
44143;SDS011;68165;51.920;4.492;2023-03-01T07:33:16;15.75;;;8.60;;
44143;SDS011;68165;51.920;4.492;2023-03-01T07:35:42;18.30;;;9.18;;
44143;SDS011;68165;51.920;4.492;2023-03-01T07:38:08;14.82;;;8.73;;
44143;SDS011;68165;51.920;4.492;2023-03-01T07:40:33;15.88;;;9.32;;
44143;SDS011;68165;51.920;4.492;2023-03-01T07:42:59;15.18;;;9.20;;
44143;SDS011;68165;51.920;4.492;2023-03-01T07:45:26;15.40;;;7.63;;
44143;SDS011;68165;51.920;4.492;2023-03-01T07:47:52;14.45;;;7.95;;
44143;SDS011;68165;51.920;4.492;2023-03-01T07:50:18;15.15;;;8.68;;
44143;SDS011;68165;51.920;4.492;2023-03-01T07:52:45;16.50;;;8.55;;
44143;SDS011;68165;51.920;4.492;2023-03-01T07:55:11;16.75;;;8.70;;
44143;SDS011;68165;51.920;4.492;2023-03-01T07:57:37;14.88;;;7.38;;
44143;SDS011;68165;51.920;4.492;2023-03-01T08:00:03;16.10;;;8.65;;
44143;SDS011;68165;51.920;4.492;2023-03-01T08:02:29;17.50;;;9.57;;
44143;SDS011;68165;51.920;4.492;2023-03-01T08:04:54;14.57;;;7.78;;
44143;SDS011;68165;51.920;4.492;2023-03-01T08:07:20;15.07;;;8.32;;
44143;SDS011;68165;51.920;4.492;2023-03-01T08:09:45;13.90;;;7.97;;
44143;SDS011;68165;51.920;4.492;2023-03-01T08:12:11;17.45;;;8.10;;
44143;SDS011;68165;51.920;4.492;2023-03-01T08:14:36;13.80;;;7.45;;
44143;SDS011;68165;51.920;4.492;2023-03-01T08:17:01;13.15;;;7.30;;
44143;SDS011;68165;51.920;4.492;2023-03-01T08:19:28;13.27;;;7.22;;
44143;SDS011;68165;51.920;4.492;2023-03-01T08:21:54;14.73;;;7.35;;
44143;SDS011;68165;51.920;4.492;2023-03-01T08:24:19;14.65;;;6.90;;
44143;SDS011;68165;51.920;4.492;2023-03-01T08:26:46;16.55;;;6.25;;
44143;SDS011;68165;51.920;4.492;2023-03-01T08:29:11;12.50;;;6.30;;
44143;SDS011;68165;51.920;4.492;2023-03-01T08:31:38;10.65;;;5.85;;
44143;SDS011;68165;51.920;4.492;2023-03-01T08:34:07;12.80;;;5.85;;
44143;SDS011;68165;51.920;4.492;2023-03-01T08:36:38;9.38;;;5.20;;
44143;SDS011;68165;51.920;4.492;2023-03-01T08:39:05;10.45;;;4.70;;
44143;SDS011;68165;51.920;4.492;2023-03-01T08:41:31;9.80;;;4.05;;
44143;SDS011;68165;51.920;4.492;2023-03-01T08:43:57;10.23;;;4.75;;
44143;SDS011;68165;51.920;4.492;2023-03-01T08:46:29;8.38;;;4.38;;
44143;SDS011;68165;51.920;4.492;2023-03-01T08:48:56;9.57;;;4.63;;
44143;SDS011;68165;51.920;4.492;2023-03-01T08:51:21;9.77;;;4.15;;
44143;SDS011;68165;51.920;4.492;2023-03-01T08:53:47;8.13;;;4.22;;
44143;SDS011;68165;51.920;4.492;2023-03-01T08:56:13;8.90;;;3.85;;
44143;SDS011;68165;51.920;4.492;2023-03-01T08:58:39;9.18;;;3.97;;
44143;SDS011;68165;51.920;4.492;2023-03-01T09:01:11;8.55;;;4.40;;
44143;SDS011;68165;51.920;4.492;2023-03-01T09:03:39;8.23;;;3.70;;
44143;SDS011;68165;51.920;4.492;2023-03-01T09:06:05;6.68;;;3.60;;
44143;SDS011;68165;51.920;4.492;2023-03-01T09:08:39;6.70;;;3.53;;
44143;SDS011;68165;51.920;4.492;2023-03-01T09:11:07;8.88;;;3.05;;
44143;SDS011;68165;51.920;4.492;2023-03-01T09:13:34;7.20;;;3.42;;
44143;SDS011;68165;51.920;4.492;2023-03-01T09:16:01;10.13;;;4.25;;
44143;SDS011;68165;51.920;4.492;2023-03-01T09:18:29;5.70;;;3.00;;
44143;SDS011;68165;51.920;4.492;2023-03-01T09:21:11;7.10;;;3.47;;
44143;SDS011;68165;51.920;4.492;2023-03-01T09:23:38;6.70;;;3.22;;
44143;SDS011;68165;51.920;4.492;2023-03-01T09:26:07;7.35;;;3.38;;
44143;SDS011;68165;51.920;4.492;2023-03-01T09:28:37;5.70;;;2.88;;
44143;SDS011;68165;51.920;4.492;2023-03-01T09:31:03;6.65;;;3.05;;
44143;SDS011;68165;51.920;4.492;2023-03-01T09:33:29;5.88;;;2.65;;
44143;SDS011;68165;51.920;4.492;2023-03-01T09:35:57;7.22;;;2.88;;
44143;SDS011;68165;51.920;4.492;2023-03-01T09:38:27;6.32;;;3.08;;
44143;SDS011;68165;51.920;4.492;2023-03-01T09:40:53;6.85;;;3.20;;
44143;SDS011;68165;51.920;4.492;2023-03-01T09:43:21;7.55;;;3.25;;
44143;SDS011;68165;51.920;4.492;2023-03-01T09:45:55;7.15;;;3.13;;
44143;SDS011;68165;51.920;4.492;2023-03-01T09:48:26;7.63;;;3.38;;
44143;SDS011;68165;51.920;4.492;2023-03-01T09:50:54;10.18;;;3.33;;
44143;SDS011;68165;51.920;4.492;2023-03-01T09:53:21;7.15;;;3.05;;
44143;SDS011;68165;51.920;4.492;2023-03-01T09:56:00;9.50;;;3.75;;
44143;SDS011;68165;51.920;4.492;2023-03-01T10:09:36;6.47;;;2.72;;
44143;SDS011;68165;51.920;4.492;2023-03-01T10:12:10;5.90;;;3.08;;
44143;SDS011;68165;51.920;4.492;2023-03-01T10:17:11;5.50;;;2.67;;
44143;SDS011;68165;51.920;4.492;2023-03-01T10:19:45;7.30;;;3.22;;
44143;SDS011;68165;51.920;4.492;2023-03-01T10:24:46;7.57;;;2.65;;
44143;SDS011;68165;51.920;4.492;2023-03-01T10:27:21;6.63;;;3.10;;
44143;SDS011;68165;51.920;4.492;2023-03-01T10:29:50;7.50;;;2.90;;
44143;SDS011;68165;51.920;4.492;2023-03-01T10:32:42;7.88;;;3.20;;
44143;SDS011;68165;51.920;4.492;2023-03-01T10:35:16;7.63;;;2.85;;
44143;SDS011;68165;51.920;4.492;2023-03-01T10:40:49;6.28;;;2.95;;
44143;SDS011;68165;51.920;4.492;2023-03-01T10:43:15;7.47;;;2.80;;
44143;SDS011;68165;51.920;4.492;2023-03-01T10:45:40;7.00;;;3.15;;
44143;SDS011;68165;51.920;4.492;2023-03-01T10:56:15;8.88;;;3.90;;
44143;SDS011;68165;51.920;4.492;2023-03-01T10:58:59;14.18;;;4.38;;
44143;SDS011;68165;51.920;4.492;2023-03-01T11:01:29;10.23;;;4.00;;
44143;SDS011;68165;51.920;4.492;2023-03-01T11:06:33;7.78;;;4.43;;
44143;SDS011;68165;51.920;4.492;2023-03-01T11:09:42;8.35;;;3.80;;
44143;SDS011;68165;51.920;4.492;2023-03-01T11:11:53;8.70;;;3.83;;
44143;SDS011;68165;51.920;4.492;2023-03-01T11:14:21;11.80;;;3.78;;
44143;SDS011;68165;51.920;4.492;2023-03-01T11:16:48;9.73;;;3.90;;
44143;SDS011;68165;51.920;4.492;2023-03-01T11:19:22;9.57;;;3.95;;
44143;SDS011;68165;51.920;4.492;2023-03-01T11:21:53;7.60;;;3.67;;
44143;SDS011;68165;51.920;4.492;2023-03-01T11:27:04;13.93;;;3.97;;
44143;SDS011;68165;51.920;4.492;2023-03-01T11:29:52;7.85;;;3.65;;
44143;SDS011;68165;51.920;4.492;2023-03-01T11:32:26;7.57;;;3.78;;
44143;SDS011;68165;51.920;4.492;2023-03-01T11:34:57;8.77;;;4.43;;
44143;SDS011;68165;51.920;4.492;2023-03-01T11:37:33;7.72;;;4.03;;
44143;SDS011;68165;51.920;4.492;2023-03-01T11:40:10;9.18;;;4.30;;
44143;SDS011;68165;51.920;4.492;2023-03-01T11:43:06;11.57;;;4.38;;
44143;SDS011;68165;51.920;4.492;2023-03-01T11:45:51;10.23;;;3.60;;
44143;SDS011;68165;51.920;4.492;2023-03-01T11:48:26;7.75;;;3.78;;
44143;SDS011;68165;51.920;4.492;2023-03-01T11:51:17;6.97;;;3.95;;
44143;SDS011;68165;51.920;4.492;2023-03-01T11:56:55;11.05;;;4.75;;
44143;SDS011;68165;51.920;4.492;2023-03-01T12:24:00;10.82;;;4.20;;
44143;SDS011;68165;51.920;4.492;2023-03-01T12:26:39;10.40;;;4.28;;
44143;SDS011;68165;51.920;4.492;2023-03-01T12:40:41;11.95;;;4.50;;
44143;SDS011;68165;51.920;4.492;2023-03-01T12:43:28;10.65;;;3.70;;
44143;SDS011;68165;51.920;4.492;2023-03-01T12:46:10;9.98;;;3.72;;
44143;SDS011;68165;51.920;4.492;2023-03-01T12:51:31;8.80;;;3.85;;
44143;SDS011;68165;51.920;4.492;2023-03-01T12:53:59;7.15;;;3.10;;
44143;SDS011;68165;51.920;4.492;2023-03-01T12:56:31;7.30;;;3.35;;
44143;SDS011;68165;51.920;4.492;2023-03-01T13:07:27;7.22;;;3.38;;
44143;SDS011;68165;51.920;4.492;2023-03-01T13:09:55;8.27;;;3.42;;
44143;SDS011;68165;51.920;4.492;2023-03-01T13:18:02;8.35;;;3.25;;
44143;SDS011;68165;51.920;4.492;2023-03-01T13:20:50;6.93;;;3.40;;
44143;SDS011;68165;51.920;4.492;2023-03-01T13:28:37;7.63;;;3.55;;
44143;SDS011;68165;51.920;4.492;2023-03-01T13:31:09;8.35;;;3.92;;
44143;SDS011;68165;51.920;4.492;2023-03-01T13:33:56;8.25;;;3.35;;
44143;SDS011;68165;51.920;4.492;2023-03-01T13:46:48;7.18;;;3.40;;
44143;SDS011;68165;51.920;4.492;2023-03-01T13:54:52;7.15;;;3.30;;
44143;SDS011;68165;51.920;4.492;2023-03-01T13:57:23;7.88;;;3.83;;
44143;SDS011;68165;51.920;4.492;2023-03-01T13:59:54;6.72;;;2.97;;
44143;SDS011;68165;51.920;4.492;2023-03-01T14:02:19;7.53;;;3.50;;
44143;SDS011;68165;51.920;4.492;2023-03-01T14:04:46;8.02;;;3.55;;
44143;SDS011;68165;51.920;4.492;2023-03-01T14:07:22;6.57;;;3.35;;
44143;SDS011;68165;51.920;4.492;2023-03-01T14:09:54;7.45;;;3.38;;
44143;SDS011;68165;51.920;4.492;2023-03-01T14:20:42;7.28;;;3.70;;
44143;SDS011;68165;51.920;4.492;2023-03-01T14:23:17;7.68;;;3.50;;
44143;SDS011;68165;51.920;4.492;2023-03-01T14:25:48;6.07;;;3.17;;
44143;SDS011;68165;51.920;4.492;2023-03-01T14:30:44;6.38;;;2.95;;
44143;SDS011;68165;51.920;4.492;2023-03-01T14:36:08;8.35;;;3.67;;
44143;SDS011;68165;51.920;4.492;2023-03-01T14:38:39;6.45;;;3.05;;
44143;SDS011;68165;51.920;4.492;2023-03-01T14:41:15;9.38;;;3.22;;
44143;SDS011;68165;51.920;4.492;2023-03-01T14:43:44;6.50;;;3.33;;
44143;SDS011;68165;51.920;4.492;2023-03-01T14:49:11;7.78;;;3.58;;
44143;SDS011;68165;51.920;4.492;2023-03-01T14:51:54;12.65;;;3.30;;
44143;SDS011;68165;51.920;4.492;2023-03-01T14:54:35;14.25;;;3.97;;
44143;SDS011;68165;51.920;4.492;2023-03-01T14:57:12;9.70;;;3.20;;
44143;SDS011;68165;51.920;4.492;2023-03-01T14:59:40;11.52;;;3.58;;
44143;SDS011;68165;51.920;4.492;2023-03-01T15:02:14;10.55;;;3.90;;
44143;SDS011;68165;51.920;4.492;2023-03-01T15:04:48;6.15;;;3.00;;
44143;SDS011;68165;51.920;4.492;2023-03-01T15:07:17;5.63;;;2.80;;
44143;SDS011;68165;51.920;4.492;2023-03-01T15:09:44;6.43;;;2.85;;
44143;SDS011;68165;51.920;4.492;2023-03-01T15:15:18;8.02;;;3.15;;
44143;SDS011;68165;51.920;4.492;2023-03-01T15:17:54;7.60;;;3.53;;
44143;SDS011;68165;51.920;4.492;2023-03-01T15:20:22;7.53;;;3.33;;
44143;SDS011;68165;51.920;4.492;2023-03-01T15:22:50;8.65;;;3.47;;
44143;SDS011;68165;51.920;4.492;2023-03-01T15:25:17;8.15;;;3.38;;
44143;SDS011;68165;51.920;4.492;2023-03-01T15:27:48;5.15;;;2.70;;
44143;SDS011;68165;51.920;4.492;2023-03-01T15:30:20;5.80;;;2.97;;
44143;SDS011;68165;51.920;4.492;2023-03-01T15:32:49;6.72;;;2.85;;
44143;SDS011;68165;51.920;4.492;2023-03-01T15:35:50;7.85;;;3.53;;
44143;SDS011;68165;51.920;4.492;2023-03-01T15:40:51;7.28;;;2.92;;
44143;SDS011;68165;51.920;4.492;2023-03-01T15:46:23;7.78;;;2.75;;
44143;SDS011;68165;51.920;4.492;2023-03-01T16:01:48;7.45;;;2.75;;
44143;SDS011;68165;51.920;4.492;2023-03-01T16:04:14;8.02;;;3.00;;
44143;SDS011;68165;51.920;4.492;2023-03-01T16:06:45;6.05;;;2.72;;
44143;SDS011;68165;51.920;4.492;2023-03-01T16:09:19;9.10;;;3.63;;
44143;SDS011;68165;51.920;4.492;2023-03-01T16:11:48;5.55;;;2.60;;
44143;SDS011;68165;51.920;4.492;2023-03-01T16:14:13;6.28;;;2.80;;
44143;SDS011;68165;51.920;4.492;2023-03-01T16:16:58;6.60;;;2.85;;
44143;SDS011;68165;51.920;4.492;2023-03-01T16:19:24;7.43;;;3.17;;
44143;SDS011;68165;51.920;4.492;2023-03-01T16:21:49;7.75;;;3.17;;
44143;SDS011;68165;51.920;4.492;2023-03-01T16:24:15;7.00;;;3.08;;
44143;SDS011;68165;51.920;4.492;2023-03-01T16:26:40;8.30;;;3.47;;
44143;SDS011;68165;51.920;4.492;2023-03-01T16:29:07;5.47;;;2.80;;
44143;SDS011;68165;51.920;4.492;2023-03-01T16:31:32;6.82;;;3.22;;
44143;SDS011;68165;51.920;4.492;2023-03-01T16:33:58;6.63;;;2.92;;
44143;SDS011;68165;51.920;4.492;2023-03-01T16:36:25;6.43;;;2.92;;
44143;SDS011;68165;51.920;4.492;2023-03-01T16:38:53;7.78;;;2.55;;
44143;SDS011;68165;51.920;4.492;2023-03-01T16:41:20;6.85;;;3.10;;
44143;SDS011;68165;51.920;4.492;2023-03-01T16:43:47;6.57;;;2.72;;
44143;SDS011;68165;51.920;4.492;2023-03-01T16:46:14;5.97;;;2.72;;
44143;SDS011;68165;51.920;4.492;2023-03-01T16:48:41;5.80;;;2.42;;
44143;SDS011;68165;51.920;4.492;2023-03-01T16:51:07;8.55;;;3.10;;
44143;SDS011;68165;51.920;4.492;2023-03-01T16:53:33;6.22;;;3.10;;
44143;SDS011;68165;51.920;4.492;2023-03-01T16:56:03;8.90;;;3.47;;
44143;SDS011;68165;51.920;4.492;2023-03-01T16:58:30;6.70;;;3.08;;
44143;SDS011;68165;51.920;4.492;2023-03-01T17:01:02;10.80;;;3.17;;
44143;SDS011;68165;51.920;4.492;2023-03-01T17:03:29;7.63;;;2.80;;
44143;SDS011;68165;51.920;4.492;2023-03-01T17:05:54;8.25;;;3.50;;
44143;SDS011;68165;51.920;4.492;2023-03-01T17:08:20;11.05;;;3.50;;
44143;SDS011;68165;51.920;4.492;2023-03-01T17:10:45;7.32;;;3.50;;
44143;SDS011;68165;51.920;4.492;2023-03-01T17:13:11;8.18;;;3.30;;
44143;SDS011;68165;51.920;4.492;2023-03-01T17:15:40;7.22;;;2.88;;
44143;SDS011;68165;51.920;4.492;2023-03-01T17:18:06;7.28;;;3.10;;
44143;SDS011;68165;51.920;4.492;2023-03-01T17:20:33;6.35;;;2.97;;
44143;SDS011;68165;51.920;4.492;2023-03-01T17:22:58;6.25;;;2.90;;
44143;SDS011;68165;51.920;4.492;2023-03-01T17:25:24;9.63;;;3.75;;
44143;SDS011;68165;51.920;4.492;2023-03-01T17:27:51;10.63;;;3.67;;
44143;SDS011;68165;51.920;4.492;2023-03-01T17:30:16;7.93;;;3.50;;
44143;SDS011;68165;51.920;4.492;2023-03-01T17:32:42;9.95;;;3.92;;